Time;durP1;ratioP1;P1;durP2;ratioP2;P2;SDS_P1;SDS_P2;PMS_P1;PMS_P2;Temp;Humidity;BMP_temperature;BMP_pressure;BME280_temperature;BME280_humidity;BME280_pressure;Samples;Min_cycle;Max_cycle;Signal;HPM_P1;HPM_P2
2021/10/12 00:02:27;;;;;;;8.47;5.13;;;7.90;99.90;;;;;;5094366;28;20269;-61
2021/10/12 00:04:55;;;;;;;9.40;5.00;;;7.90;99.90;;;;;;5094007;28;20729;-60
2021/10/12 00:07:23;;;;;;;10.23;5.03;;;7.90;99.90;;;;;;5094526;28;20283;-61
2021/10/12 00:09:51;;;;;;;9.20;5.57;;;7.80;99.90;;;;;;5093924;28;20330;-60
2021/10/12 00:12:19;;;;;;;10.23;5.53;;;7.80;99.90;;;;;;5094013;28;20548;-61
2021/10/12 00:14:46;;;;;;;10.23;5.63;;;7.80;99.90;;;;;;5094036;28;20295;-61
2021/10/12 00:17:16;;;;;;;7.90;5.27;;;7.80;99.90;;;;;;5093961;28;20647;-62
2021/10/12 00:19:43;;;;;;;9.03;5.77;;;7.70;99.90;;;;;;5094056;28;20273;-61
2021/10/12 00:22:11;;;;;;;11.03;5.57;;;7.70;99.90;;;;;;5094240;28;20286;-60
2021/10/12 00:24:39;;;;;;;9.23;5.50;;;7.70;99.90;;;;;;5093686;28;20224;-61
2021/10/12 00:27:07;;;;;;;9.83;5.30;;;7.70;99.90;;;;;;5094001;28;20622;-61
2021/10/12 00:29:35;;;;;;;10.63;5.83;;;7.60;99.90;;;;;;5094367;28;20199;-60
2021/10/12 00:32:03;;;;;;;9.83;5.20;;;7.60;99.90;;;;;;5093858;28;20206;-60
2021/10/12 00:34:32;;;;;;;6.97;5.50;;;7.60;99.90;;;;;;5093758;28;20192;-62
2021/10/12 00:37:00;;;;;;;6.80;4.63;;;7.50;99.90;;;;;;5093624;28;20212;-61
2021/10/12 00:39:28;;;;;;;9.87;4.60;;;7.50;99.90;;;;;;5093521;28;20294;-62
2021/10/12 00:41:56;;;;;;;8.40;4.70;;;7.40;99.90;;;;;;5093851;28;20199;-60
2021/10/12 00:44:25;;;;;;;6.47;4.37;;;7.40;99.90;;;;;;5093584;28;20265;-61
2021/10/12 00:46:53;;;;;;;8.77;5.10;;;7.40;99.90;;;;;;5093640;28;20210;-61
2021/10/12 00:49:21;;;;;;;7.63;4.70;;;7.40;99.90;;;;;;5093780;28;20242;-60
2021/10/12 00:51:50;;;;;;;6.60;4.87;;;7.30;99.90;;;;;;5093432;28;20286;-61
2021/10/12 00:54:18;;;;;;;7.67;4.67;;;7.30;99.90;;;;;;5093246;28;20294;-62
2021/10/12 00:56:47;;;;;;;11.10;4.87;;;7.30;99.90;;;;;;5093444;28;20200;-62
2021/10/12 00:59:15;;;;;;;9.20;4.77;;;7.30;99.90;;;;;;5093377;28;20211;-61
2021/10/12 01:01:43;;;;;;;8.43;3.77;;;7.30;99.90;;;;;;5093421;28;20302;-62
2021/10/12 01:04:11;;;;;;;7.67;4.60;;;7.20;99.90;;;;;;5093381;28;20255;-61
2021/10/12 01:06:39;;;;;;;7.33;4.77;;;7.20;99.90;;;;;;5093050;28;20698;-61
2021/10/12 01:09:08;;;;;;;6.57;5.43;;;7.20;99.90;;;;;;5093372;28;20606;-60
2021/10/12 01:11:38;;;;;;;8.87;6.63;;;7.20;99.90;;;;;;5093268;28;20298;-62
2021/10/12 01:14:05;;;;;;;9.10;5.90;;;7.20;99.90;;;;;;5092779;28;20679;-61
2021/10/12 01:16:33;;;;;;;8.10;5.67;;;7.20;99.90;;;;;;5093182;28;20209;-60
2021/10/12 01:19:04;;;;;;;12.33;6.50;;;7.10;99.90;;;;;;5093068;28;20294;-60
2021/10/12 01:21:40;;;;;;;10.73;6.70;;;7.20;99.90;;;;;;5092691;28;20650;-60
2021/10/12 01:24:08;;;;;;;7.60;6.17;;;7.20;99.90;;;;;;5093164;28;20203;-60
2021/10/12 01:26:37;;;;;;;8.33;5.80;;;7.10;99.90;;;;;;5093116;28;20200;-61
2021/10/12 01:29:06;;;;;;;8.70;5.63;;;7.10;99.90;;;;;;5093003;28;20313;-62
2021/10/12 01:31:34;;;;;;;9.00;5.47;;;7.10;99.90;;;;;;5092706;28;20210;-61
2021/10/12 01:34:11;;;;;;;7.77;5.53;;;7.10;99.90;;;;;;5092658;28;20691;-62
2021/10/12 01:36:41;;;;;;;10.23;7.90;;;7.00;99.90;;;;;;5092349;28;20218;-61
2021/10/12 01:39:09;;;;;;;9.80;7.00;;;7.00;99.90;;;;;;5092909;28;20295;-60
2021/10/12 01:41:38;;;;;;;15.90;10.97;;;7.00;99.90;;;;;;5092944;28;20210;-61
2021/10/12 01:44:09;;;;;;;14.07;10.63;;;7.00;99.90;;;;;;5092423;28;20679;-60
2021/10/12 01:46:37;;;;;;;18.13;12.90;;;7.00;99.90;;;;;;5092977;28;20271;-61
2021/10/12 01:49:05;;;;;;;18.83;13.43;;;6.90;99.90;;;;;;5092887;28;20374;-61
2021/10/12 01:51:33;;;;;;;19.60;12.43;;;6.90;99.90;;;;;;5092790;28;20302;-61
2021/10/12 01:54:03;;;;;;;23.20;16.27;;;6.90;99.90;;;;;;5092648;28;20557;-61
2021/10/12 01:56:31;;;;;;;24.50;16.87;;;6.90;99.90;;;;;;5092825;28;20184;-60
2021/10/12 01:58:59;;;;;;;22.10;15.47;;;7.00;99.90;;;;;;5092838;28;20203;-60
2021/10/12 02:01:27;;;;;;;21.50;13.20;;;7.00;99.90;;;;;;5092758;28;20200;-60
2021/10/12 02:03:55;;;;;;;20.13;11.77;;;7.10;99.90;;;;;;5092745;28;20203;-61
2021/10/12 02:06:23;;;;;;;14.93;9.27;;;7.10;99.90;;;;;;5092666;28;20431;-60
2021/10/12 02:08:50;;;;;;;13.93;8.90;;;7.20;99.90;;;;;;5092844;28;20313;-59
2021/10/12 02:11:20;;;;;;;14.93;8.80;;;7.20;99.90;;;;;;5092250;28;20704;-60
2021/10/12 02:13:47;;;;;;;14.40;9.63;;;7.20;99.90;;;;;;5092462;28;20200;-60
2021/10/12 02:16:15;;;;;;;15.67;10.77;;;7.30;99.90;;;;;;5092190;28;20667;-60
2021/10/12 02:18:43;;;;;;;10.63;6.67;;;7.30;99.90;;;;;;5092630;28;20208;-60
2021/10/12 02:21:11;;;;;;;12.03;6.40;;;7.20;99.90;;;;;;5092195;28;20200;-60
2021/10/12 02:23:39;;;;;;;9.17;5.23;;;7.20;99.90;;;;;;5092510;28;20742;-60
2021/10/12 02:26:07;;;;;;;10.57;5.50;;;7.20;99.90;;;;;;5092030;28;20307;-59
2021/10/12 02:28:36;;;;;;;8.10;5.10;;;7.10;99.90;;;;;;5092472;28;20196;-60
2021/10/12 02:31:04;;;;;;;9.60;5.17;;;7.10;99.90;;;;;;5092552;28;20289;-60
2021/10/12 02:33:32;;;;;;;12.83;6.87;;;7.10;99.90;;;;;;5092321;28;20295;-60
2021/10/12 02:36:00;;;;;;;8.70;6.73;;;7.10;99.90;;;;;;5092063;28;20197;-60
2021/10/12 02:38:28;;;;;;;11.57;8.17;;;7.00;99.90;;;;;;5092508;28;20214;-60
2021/10/12 02:40:55;;;;;;;10.83;7.73;;;7.00;99.90;;;;;;5092293;28;20234;-60
2021/10/12 02:43:23;;;;;;;11.53;7.80;;;7.00;99.90;;;;;;5092269;28;20199;-60
2021/10/12 02:45:53;;;;;;;11.63;8.83;;;7.00;99.90;;;;;;5092294;28;20222;-60
2021/10/12 02:48:21;;;;;;;13.50;8.90;;;6.90;99.90;;;;;;5094525;28;20180;-60
2021/10/12 02:50:49;;;;;;;11.10;8.47;;;6.90;99.90;;;;;;5095701;28;20199;-60
2021/10/12 02:53:17;;;;;;;14.27;9.37;;;6.90;99.90;;;;;;5095761;28;20671;-60
2021/10/12 02:55:45;;;;;;;14.73;10.80;;;6.90;99.90;;;;;;5095759;28;20746;-61
2021/10/12 02:58:14;;;;;;;14.33;9.63;;;6.90;99.90;;;;;;5095728;28;20234;-60
2021/10/12 03:00:42;;;;;;;13.27;9.20;;;6.90;99.90;;;;;;5095740;28;20288;-60
2021/10/12 03:03:12;;;;;;;16.60;10.33;;;6.90;99.90;;;;;;5095652;28;20233;-60
2021/10/12 03:05:45;;;;;;;16.67;10.97;;;6.90;99.90;;;;;;5095677;28;20254;-59
2021/10/12 03:08:13;;;;;;;14.67;9.73;;;6.90;99.90;;;;;;5095797;28;20193;-61
2021/10/12 03:10:41;;;;;;;16.53;10.13;;;6.80;99.90;;;;;;5095364;28;20311;-62
2021/10/12 03:13:09;;;;;;;14.53;8.97;;;6.90;99.90;;;;;;5095076;28;20203;-62
2021/10/12 03:15:38;;;;;;;15.57;9.20;;;6.90;99.90;;;;;;5095325;28;20207;-62
2021/10/12 03:18:06;;;;;;;11.40;8.73;;;6.90;99.90;;;;;;5095399;28;20290;-62
2021/10/12 03:20:36;;;;;;;18.63;14.10;;;6.90;99.90;;;;;;5095214;28;20203;-62
2021/10/12 03:23:03;;;;;;;25.43;16.60;;;6.90;99.90;;;;;;5095273;28;20228;-62
2021/10/12 03:25:32;;;;;;;17.00;11.73;;;6.90;99.90;;;;;;5095223;28;20211;-62
2021/10/12 03:28:00;;;;;;;19.10;12.10;;;6.90;99.90;;;;;;5094904;28;20659;-63
2021/10/12 03:30:27;;;;;;;24.50;13.67;;;6.90;99.90;;;;;;5095568;28;20195;-62
2021/10/12 03:32:55;;;;;;;22.67;14.67;;;6.90;99.90;;;;;;5095203;28;20203;-61
2021/10/12 03:35:29;;;;;;;23.93;15.60;;;7.00;99.90;;;;;;5094950;28;20302;-61
2021/10/12 03:37:59;;;;;;;21.00;14.20;;;7.00;99.90;;;;;;5095120;28;20187;-63
2021/10/12 03:40:28;;;;;;;20.10;11.97;;;6.90;99.90;;;;;;5095059;28;20303;-61
2021/10/12 03:42:55;;;;;;;21.00;12.57;;;7.00;99.90;;;;;;5094355;28;20746;-61
2021/10/12 03:45:24;;;;;;;20.00;12.57;;;7.00;99.90;;;;;;5094709;28;20220;-62
2021/10/12 03:47:51;;;;;;;15.73;10.37;;;7.00;99.90;;;;;;5094359;28;20295;-62
2021/10/12 03:50:19;;;;;;;15.93;9.77;;;7.00;99.90;;;;;;5094344;28;20745;-62
2021/10/12 03:52:47;;;;;;;14.70;9.37;;;7.00;99.90;;;;;;5094749;28;20295;-62
2021/10/12 03:55:16;;;;;;;13.73;9.57;;;6.90;99.90;;;;;;5094636;28;20196;-62
2021/10/12 03:57:44;;;;;;;12.93;9.03;;;6.90;99.90;;;;;;5094362;28;20196;-62
2021/10/12 04:00:13;;;;;;;12.40;8.13;;;6.90;99.90;;;;;;5094328;28;20242;-62
2021/10/12 04:02:41;;;;;;;15.20;7.53;;;6.90;99.90;;;;;;5094643;28;20196;-63
2021/10/12 04:05:09;;;;;;;10.93;7.37;;;7.00;99.90;;;;;;5094198;28;20221;-63
2021/10/12 04:07:37;;;;;;;16.33;7.73;;;7.00;99.90;;;;;;5094807;28;20199;-61
2021/10/12 04:10:06;;;;;;;11.27;6.67;;;7.00;99.90;;;;;;5094582;28;20327;-62
2021/10/12 04:12:35;;;;;;;11.83;7.07;;;6.90;99.90;;;;;;5094546;28;20217;-61
2021/10/12 04:15:04;;;;;;;14.37;7.13;;;6.90;99.90;;;;;;5094382;28;20256;-61
2021/10/12 04:17:31;;;;;;;11.57;7.40;;;6.90;99.90;;;;;;5095014;28;20199;-62
2021/10/12 04:19:59;;;;;;;8.80;6.57;;;6.90;99.90;;;;;;5094276;28;20688;-62
2021/10/12 04:22:27;;;;;;;10.80;7.60;;;6.90;99.90;;;;;;5094357;28;20559;-62
2021/10/12 04:24:55;;;;;;;12.63;7.60;;;6.80;99.90;;;;;;5094366;28;20226;-62
2021/10/12 04:27:23;;;;;;;15.13;8.00;;;6.90;99.90;;;;;;5094174;28;20626;-63
2021/10/12 04:29:52;;;;;;;10.03;7.30;;;6.90;99.90;;;;;;5094098;28;20200;-63
2021/10/12 04:32:20;;;;;;;15.33;9.53;;;6.90;99.90;;;;;;5093788;28;20206;-62
2021/10/12 04:34:50;;;;;;;15.93;9.10;;;6.90;99.90;;;;;;5094161;28;20206;-62
2021/10/12 04:37:18;;;;;;;13.37;9.73;;;7.10;99.90;;;;;;5093584;28;20370;-62
2021/10/12 04:39:46;;;;;;;17.40;9.70;;;7.10;99.90;;;;;;5094138;28;20215;-62
2021/10/12 04:42:14;;;;;;;19.17;10.30;;;7.20;99.90;;;;;;5093953;28;20200;-63
2021/10/12 04:44:42;;;;;;;14.47;10.13;;;7.20;99.90;;;;;;5093549;28;20196;-62
2021/10/12 04:47:11;;;;;;;15.03;10.10;;;7.40;99.90;;;;;;5093310;28;20323;-62
2021/10/12 04:49:39;;;;;;;14.97;10.43;;;7.40;99.90;;;;;;5093750;28;20209;-63
2021/10/12 04:52:07;;;;;;;17.20;10.23;;;7.40;99.90;;;;;;5093774;28;20302;-61
2021/10/12 04:54:35;;;;;;;14.57;9.80;;;7.40;99.90;;;;;;5093788;28;20202;-63
2021/10/12 04:57:03;;;;;;;18.50;9.90;;;7.40;99.90;;;;;;5093562;28;20206;-62
2021/10/12 04:59:30;;;;;;;13.87;8.47;;;7.40;99.90;;;;;;5093630;28;20576;-63
2021/10/12 05:01:58;;;;;;;14.23;8.63;;;7.40;99.90;;;;;;5093389;28;20196;-62
2021/10/12 05:04:28;;;;;;;11.93;7.63;;;7.40;99.90;;;;;;5093638;28;20208;-62
2021/10/12 05:06:56;;;;;;;16.20;9.87;;;7.40;99.90;;;;;;5093159;28;20216;-61
2021/10/12 05:09:24;;;;;;;14.07;10.43;;;7.40;99.90;;;;;;5093257;28;20196;-62
2021/10/12 05:11:51;;;;;;;13.90;9.07;;;7.40;99.90;;;;;;5092960;28;20286;-62
2021/10/12 05:14:19;;;;;;;17.33;9.70;;;7.40;99.90;;;;;;5093077;28;20196;-61
2021/10/12 05:16:49;;;;;;;15.73;10.33;;;7.50;99.90;;;;;;5092966;28;20691;-62
2021/10/12 05:19:17;;;;;;;15.80;10.87;;;7.50;99.90;;;;;;5093086;28;20302;-63
2021/10/12 05:21:46;;;;;;;16.47;9.90;;;7.60;99.90;;;;;;5093407;28;20561;-62
2021/10/12 05:24:14;;;;;;;13.30;8.40;;;7.60;99.90;;;;;;5092953;28;20261;-62
2021/10/12 05:26:42;;;;;;;15.57;9.10;;;7.60;99.90;;;;;;5093126;28;20364;-62
2021/10/12 05:29:11;;;;;;;15.03;8.60;;;7.60;99.90;;;;;;5092946;28;20200;-64
2021/10/12 05:31:40;;;;;;;14.77;8.27;;;7.60;99.90;;;;;;5093242;28;20200;-62
2021/10/12 05:34:08;;;;;;;10.57;7.47;;;7.60;99.90;;;;;;5093084;28;20272;-63
2021/10/12 05:36:36;;;;;;;9.67;7.10;;;7.60;99.90;;;;;;5093103;28;20215;-63
2021/10/12 05:39:05;;;;;;;13.53;7.20;;;7.70;99.90;;;;;;5092938;28;20290;-62
2021/10/12 05:41:33;;;;;;;10.97;7.00;;;7.80;99.90;;;;;;5093169;28;20219;-62
2021/10/12 05:44:01;;;;;;;12.23;8.27;;;7.80;99.90;;;;;;5093007;28;20294;-61
2021/10/12 05:46:29;;;;;;;11.20;7.30;;;7.80;99.90;;;;;;5092817;28;20254;-63
2021/10/12 05:48:58;;;;;;;10.67;7.30;;;7.80;99.90;;;;;;5092912;28;20208;-62
2021/10/12 05:51:26;;;;;;;12.80;8.20;;;7.90;99.90;;;;;;5092722;28;20667;-63
2021/10/12 05:53:56;;;;;;;10.13;6.80;;;8.00;99.90;;;;;;5092990;28;20207;-62
2021/10/12 05:56:27;;;;;;;13.83;7.40;;;8.00;99.90;;;;;;5093283;28;20302;-62
2021/10/12 05:58:55;;;;;;;11.27;6.93;;;8.00;99.90;;;;;;5092627;28;20188;-62
2021/10/12 06:01:24;;;;;;;10.43;7.10;;;8.10;99.90;;;;;;5092549;28;20632;-61
2021/10/12 06:03:52;;;;;;;13.30;7.10;;;8.10;99.90;;;;;;5092613;28;20316;-61
2021/10/12 06:06:20;;;;;;;11.93;6.97;;;8.10;99.90;;;;;;5092563;28;20413;-62
2021/10/12 06:08:48;;;;;;;10.77;6.60;;;8.10;99.90;;;;;;5092907;28;20211;-62
2021/10/12 06:11:16;;;;;;;11.10;6.33;;;8.10;99.90;;;;;;5092494;28;20319;-62
2021/10/12 06:13:47;;;;;;;11.83;7.13;;;8.10;99.90;;;;;;5092127;28;20277;-63
2021/10/12 06:16:15;;;;;;;10.07;6.33;;;8.10;99.90;;;;;;5092767;28;20271;-63
2021/10/12 06:18:43;;;;;;;13.13;6.90;;;8.20;99.90;;;;;;5092512;28;20235;-61
2021/10/12 06:21:11;;;;;;;10.33;6.37;;;8.30;99.90;;;;;;5092431;28;20222;-63
2021/10/12 06:23:40;;;;;;;11.87;7.73;;;8.40;99.90;;;;;;5095503;28;20203;-62
2021/10/12 06:26:08;;;;;;;10.23;6.93;;;8.50;99.90;;;;;;5095918;28;20210;-62
2021/10/12 06:28:36;;;;;;;12.90;7.50;;;8.50;99.90;;;;;;5096033;28;20614;-62
2021/10/12 06:31:06;;;;;;;10.70;6.73;;;8.60;99.90;;;;;;5096208;28;20208;-63
2021/10/12 06:33:34;;;;;;;12.93;7.10;;;8.80;99.90;;;;;;5095951;28;20631;-63
2021/10/12 06:36:02;;;;;;;12.07;7.97;;;8.80;99.90;;;;;;5096221;28;20202;-62
2021/10/12 06:38:30;;;;;;;10.30;7.53;;;8.90;99.90;;;;;;5096235;28;20196;-63
2021/10/12 06:40:58;;;;;;;10.97;7.03;;;9.10;99.90;;;;;;5096186;28;20290;-62
2021/10/12 06:43:26;;;;;;;13.37;6.60;;;9.20;99.90;;;;;;5096308;28;20201;-61
2021/10/12 06:45:54;;;;;;;8.77;6.63;;;9.30;99.90;;;;;;5096248;28;20204;-62
2021/10/12 06:48:23;;;;;;;7.67;5.43;;;9.30;99.90;;;;;;5096129;28;20212;-62
2021/10/12 06:50:51;;;;;;;9.30;6.20;;;9.30;99.90;;;;;;5095410;28;20200;-63
2021/10/12 06:53:42;;;;;;;10.07;5.90;;;9.20;99.90;;;;;;5096064;28;20275;-62
2021/10/12 06:56:11;;;;;;;10.77;5.80;;;9.30;99.90;;;;;;5094920;28;20219;-61
2021/10/12 06:58:38;;;;;;;7.50;5.40;;;9.30;99.90;;;;;;5095560;28;20199;-62
2021/10/12 07:01:20;;;;;;;10.83;5.63;;;9.30;99.90;;;;;;5095954;28;20184;-62
2021/10/12 07:03:50;;;;;;;6.60;5.90;;;9.30;99.90;;;;;;5095902;28;20227;-62
2021/10/12 07:06:18;;;;;;;9.07;5.60;;;9.30;99.90;;;;;;5095589;28;20683;-62
2021/10/12 07:08:45;;;;;;;8.83;5.87;;;9.30;99.90;;;;;;5095688;28;20315;-63
2021/10/12 07:11:13;;;;;;;10.87;6.40;;;9.30;99.90;;;;;;5095289;28;20254;-62
2021/10/12 07:13:41;;;;;;;8.50;5.40;;;9.30;99.90;;;;;;5095531;28;20204;-61
2021/10/12 07:16:09;;;;;;;9.03;6.13;;;9.30;99.90;;;;;;5095623;28;20556;-62
2021/10/12 07:18:37;;;;;;;10.60;5.80;;;9.30;99.90;;;;;;5095404;28;20287;-62
2021/10/12 07:21:06;;;;;;;10.20;5.80;;;9.30;99.90;;;;;;5095324;28;20204;-63
2021/10/12 07:23:35;;;;;;;12.13;5.90;;;9.30;99.90;;;;;;5095377;28;20207;-62
2021/10/12 07:26:03;;;;;;;8.63;4.80;;;9.40;99.90;;;;;;5095364;28;20196;-62
2021/10/12 07:28:31;;;;;;;6.47;4.60;;;9.40;99.90;;;;;;5095043;28;20224;-62
2021/10/12 07:31:03;;;;;;;12.77;5.50;;;9.40;99.90;;;;;;5095325;28;20238;-62
2021/10/12 07:33:31;;;;;;;7.30;4.73;;;9.40;99.90;;;;;;5094608;28;20710;-62
2021/10/12 07:35:59;;;;;;;8.30;5.10;;;9.40;99.90;;;;;;5094996;28;20208;-62
2021/10/12 07:38:29;;;;;;;9.23;4.47;;;9.30;99.90;;;;;;5095202;28;20195;-63
2021/10/12 07:40:57;;;;;;;7.60;4.57;;;9.30;99.90;;;;;;5095068;28;20184;-62
2021/10/12 07:43:25;;;;;;;8.60;5.03;;;9.30;99.90;;;;;;5095030;28;20242;-63
2021/10/12 07:45:53;;;;;;;8.27;5.70;;;9.30;99.90;;;;;;5094871;28;20237;-62
2021/10/12 07:48:23;;;;;;;8.80;5.90;;;9.30;99.90;;;;;;5094470;28;20223;-63
2021/10/12 07:50:52;;;;;;;8.10;5.17;;;9.20;99.90;;;;;;5093485;28;20207;-62
2021/10/12 07:53:20;;;;;;;7.60;5.17;;;9.20;99.90;;;;;;5089385;28;20196;-63
2021/10/12 07:55:52;;;;;;;10.23;6.40;;;9.30;99.90;;;;;;5094477;28;20222;-63
2021/10/12 07:58:19;;;;;;;12.87;8.73;;;9.30;99.90;;;;;;5094462;28;20207;-62
2021/10/12 08:00:47;;;;;;;11.27;7.40;;;9.30;99.90;;;;;;5094229;28;20202;-62
2021/10/12 08:03:16;;;;;;;9.47;6.93;;;9.40;99.90;;;;;;5094500;28;20265;-62
2021/10/12 08:05:45;;;;;;;11.50;6.37;;;9.40;99.90;;;;;;5094394;28;20204;-62
2021/10/12 08:08:13;;;;;;;10.37;6.97;;;9.50;99.90;;;;;;5094134;28;20353;-63
2021/10/12 08:10:42;;;;;;;10.03;7.00;;;9.70;99.90;;;;;;5093945;28;20238;-62
2021/10/12 08:13:14;;;;;;;10.83;6.33;;;9.80;99.90;;;;;;5093813;28;20762;-62
2021/10/12 08:15:47;;;;;;;8.93;5.50;;;9.90;99.90;;;;;;5095072;28;20640;-61
2021/10/12 08:18:16;;;;;;;10.67;5.27;;;9.90;99.90;;;;;;5094411;28;20271;-61
2021/10/12 08:20:44;;;;;;;9.80;5.70;;;9.90;99.90;;;;;;5093917;28;20210;-62
2021/10/12 08:23:11;;;;;;;7.53;5.37;;;9.80;99.90;;;;;;5094096;28;20203;-62
2021/10/12 08:25:39;;;;;;;8.73;5.30;;;9.80;99.90;;;;;;5093986;28;20658;-62
2021/10/12 08:28:07;;;;;;;9.83;5.40;;;9.70;99.90;;;;;;5093667;28;20226;-61
2021/10/12 08:30:36;;;;;;;6.17;5.07;;;9.70;99.90;;;;;;5093897;28;20207;-61
2021/10/12 08:33:04;;;;;;;7.83;4.80;;;9.70;99.90;;;;;;5093910;28;20200;-61
2021/10/12 08:35:32;;;;;;;8.83;6.00;;;9.70;99.90;;;;;;5093458;28;20622;-62
2021/10/12 08:38:00;;;;;;;6.83;5.23;;;9.70;99.90;;;;;;5093721;28;20638;-61
2021/10/12 08:40:30;;;;;;;7.37;6.00;;;9.70;99.90;;;;;;5093591;28;20610;-61
2021/10/12 08:42:59;;;;;;;8.83;5.23;;;9.80;99.90;;;;;;5093402;28;20245;-61
2021/10/12 08:45:27;;;;;;;11.03;5.33;;;9.80;99.90;;;;;;5093201;28;20294;-61
2021/10/12 08:47:57;;;;;;;6.23;4.87;;;9.80;99.90;;;;;;5092066;28;20736;-62
2021/10/12 08:50:25;;;;;;;5.33;4.43;;;9.90;99.90;;;;;;5093327;28;20374;-61
2021/10/12 08:52:53;;;;;;;11.10;4.97;;;10.00;99.90;;;;;;5093464;28;20282;-62
2021/10/12 08:55:21;;;;;;;15.03;6.50;;;9.90;99.90;;;;;;5093059;28;20817;-62
2021/10/12 08:57:49;;;;;;;14.70;7.10;;;9.90;99.90;;;;;;5093450;28;20283;-62
2021/10/12 09:00:18;;;;;;;17.63;7.70;;;9.90;99.90;;;;;;5093415;28;20287;-62
2021/10/12 09:03:15;;;;;;;15.70;6.37;;;9.90;99.90;;;;;;5093434;28;20207;-62
2021/10/12 09:05:52;;;;;;;16.10;7.20;;;9.90;99.90;;;;;;5092954;28;20224;-62
2021/10/12 09:08:25;;;;;;;11.13;6.00;;;10.00;99.90;;;;;;5093252;28;20211;-61
2021/10/12 09:10:53;;;;;;;11.63;6.27;;;10.10;99.90;;;;;;5093045;28;20290;-61
2021/10/12 09:13:21;;;;;;;13.80;6.00;;;10.10;99.90;;;;;;5093040;28;20238;-61
2021/10/12 09:16:04;;;;;;;8.10;4.93;;;10.20;99.90;;;;;;5093044;28;20211;-61
2021/10/12 09:18:54;;;;;;;7.57;4.37;;;10.30;99.90;;;;;;5093092;28;20651;-61
2021/10/12 09:21:25;;;;;;;5.13;4.60;;;10.30;99.90;;;;;;5093107;28;20275;-61
2021/10/12 09:24:02;;;;;;;7.17;4.63;;;10.30;99.90;;;;;;5093374;28;20275;-61
2021/10/12 09:26:33;;;;;;;11.37;5.13;;;10.30;99.90;;;;;;5093135;28;20180;-62
2021/10/12 09:29:06;;;;;;;8.07;4.77;;;10.20;99.90;;;;;;5093004;28;20251;-61
2021/10/12 09:31:36;;;;;;;6.73;4.87;;;10.20;99.90;;;;;;5093180;28;20230;-63
2021/10/12 09:34:08;;;;;;;9.50;5.20;;;10.20;99.90;;;;;;5093432;28;20214;-62
2021/10/12 09:36:38;;;;;;;9.10;5.30;;;10.20;99.90;;;;;;5092921;28;20211;-62
2021/10/12 09:39:14;;;;;;;6.20;5.17;;;10.40;99.90;;;;;;5093094;28;20287;-62
2021/10/12 09:41:43;;;;;;;8.57;5.87;;;10.30;99.90;;;;;;5092669;28;20213;-62
2021/10/12 09:44:14;;;;;;;7.30;5.67;;;10.30;99.90;;;;;;5092570;28;20713;-63
2021/10/12 09:46:45;;;;;;;8.40;6.60;;;10.30;99.90;;;;;;5093164;28;20283;-62
2021/10/12 09:49:18;;;;;;;9.37;6.93;;;10.40;99.90;;;;;;5092948;28;20296;-62
2021/10/12 09:51:57;;;;;;;11.40;7.07;;;10.40;99.90;;;;;;5092590;28;20604;-62
2021/10/12 09:54:27;;;;;;;8.70;6.63;;;10.60;99.90;;;;;;5092931;28;20266;-63
2021/10/12 09:56:56;;;;;;;8.07;7.00;;;10.60;99.90;;;;;;5094363;28;20279;-63
2021/10/12 09:59:24;;;;;;;7.37;5.67;;;10.70;99.90;;;;;;5096836;28;20291;-62
2021/10/12 10:01:54;;;;;;;8.03;5.47;;;10.70;99.90;;;;;;5096564;28;20299;-62
2021/10/12 10:04:25;;;;;;;7.30;5.23;;;10.80;99.90;;;;;;5096851;28;20199;-62
2021/10/12 10:07:04;;;;;;;8.53;5.77;;;10.80;99.90;;;;;;5096600;28;20223;-63
2021/10/12 10:09:33;;;;;;;8.13;5.83;;;10.90;99.90;;;;;;5096597;28;20235;-61
2021/10/12 10:12:01;;;;;;;6.47;4.97;;;11.00;99.90;;;;;;5096464;28;20703;-61
2021/10/12 10:14:30;;;;;;;7.30;5.30;;;11.10;99.90;;;;;;5096138;28;20655;-62
2021/10/12 10:17:01;;;;;;;5.83;5.17;;;11.10;99.90;;;;;;5096663;28;20287;-62
2021/10/12 10:19:34;;;;;;;7.03;4.10;;;11.30;99.90;;;;;;5096716;28;20208;-61
2021/10/12 10:22:02;;;;;;;8.20;3.80;;;11.30;99.90;;;;;;5096434;28;20625;-62
2021/10/12 10:24:44;;;;;;;7.60;4.03;;;11.30;99.90;;;;;;5096294;28;20204;-63
2021/10/12 10:27:32;;;;;;;4.80;3.53;;;11.30;99.90;;;;;;5096405;28;20188;-62
2021/10/12 10:30:23;;;;;;;5.27;3.67;;;11.20;99.90;;;;;;5096320;28;20226;-61
2021/10/12 10:32:52;;;;;;;5.53;3.70;;;11.20;99.90;;;;;;5096063;28;20628;-62
2021/10/12 10:35:45;;;;;;;5.23;3.60;;;11.10;99.90;;;;;;5096329;28;20291;-62
2021/10/12 10:38:30;;;;;;;6.30;3.23;;;11.10;99.90;;;;;;5096239;28;20203;-62
2021/10/12 10:41:35;;;;;;;6.07;3.60;;;11.00;99.90;;;;;;5096329;28;20184;-62
2021/10/12 10:44:05;;;;;;;3.90;3.13;;;10.90;99.90;;;;;;5095824;28;20223;-62
2021/10/12 10:46:43;;;;;;;4.67;3.80;;;10.80;99.90;;;;;;5096051;28;20206;-63
2021/10/12 10:49:14;;;;;;;5.40;3.93;;;10.80;99.90;;;;;;5096175;28;20269;-62
2021/10/12 10:51:49;;;;;;;5.10;3.67;;;10.90;99.90;;;;;;5096097;28;20192;-62
2021/10/12 10:54:59;;;;;;;5.33;3.60;;;10.90;99.90;;;;;;5095998;28;20211;-62
2021/10/12 10:57:29;;;;;;;5.73;3.53;;;10.90;99.90;;;;;;5095736;28;20186;-61
2021/10/12 11:00:33;;;;;;;4.23;3.23;;;10.90;99.90;;;;;;5095937;28;20200;-61
2021/10/12 11:03:01;;;;;;;5.40;3.50;;;11.00;99.90;;;;;;5095915;28;20276;-61
2021/10/12 11:05:41;;;;;;;4.00;3.50;;;11.20;99.90;;;;;;5095727;28;20196;-62
2021/10/12 11:08:19;;;;;;;4.67;2.77;;;11.20;99.90;;;;;;5094381;28;20275;-61
2021/10/12 11:10:49;;;;;;;5.13;3.37;;;11.20;99.90;;;;;;5095338;28;20686;-61
2021/10/12 11:13:27;;;;;;;3.93;2.90;;;11.20;99.90;;;;;;5095403;28;20211;-61
2021/10/12 11:15:55;;;;;;;3.83;2.33;;;11.30;99.90;;;;;;5075154;28;20200;-62
2021/10/12 11:18:23;;;;;;;2.23;2.00;;;11.30;99.90;;;;;;5075242;28;20296;-62
2021/10/12 11:20:53;;;;;;;3.00;2.60;;;11.40;99.90;;;;;;5074748;28;20197;-61
2021/10/12 11:23:25;;;;;;;3.07;2.23;;;11.40;99.90;;;;;;5074919;28;20692;-62
2021/10/12 11:25:58;;;;;;;2.10;1.60;;;11.50;99.90;;;;;;5075103;28;20193;-61
2021/10/12 11:28:27;;;;;;;1.90;1.70;;;11.50;99.90;;;;;;5074990;28;20574;-61
2021/10/12 11:30:59;;;;;;;1.90;1.70;;;11.40;99.90;;;;;;5075287;28;20216;-62
2021/10/12 11:33:45;;;;;;;2.53;1.47;;;11.50;99.90;;;;;;5074973;28;20187;-61
2021/10/12 11:36:14;;;;;;;1.10;0.90;;;11.60;99.90;;;;;;5074718;28;20220;-61
2021/10/12 11:38:45;;;;;;;1.30;1.00;;;11.50;99.90;;;;;;5074904;28;20295;-61
2021/10/12 11:41:15;;;;;;;1.10;1.00;;;11.60;99.90;;;;;;5074763;28;20223;-61
2021/10/12 11:43:44;;;;;;;2.50;0.80;;;11.50;99.90;;;;;;5074570;28;20287;-61
2021/10/12 11:46:12;;;;;;;1.53;0.70;;;11.50;99.90;;;;;;5074627;28;20625;-62
2021/10/12 11:48:40;;;;;;;0.93;0.83;;;11.40;99.90;;;;;;5074573;28;20197;-62
2021/10/12 11:51:16;;;;;;;1.40;0.80;;;11.50;99.90;;;;;;5074262;28;20317;-61
2021/10/12 11:53:46;;;;;;;1.17;0.83;;;11.50;99.90;;;;;;5074462;28;20200;-60
2021/10/12 11:56:15;;;;;;;1.03;0.90;;;11.60;99.90;;;;;;5074272;28;20292;-62
2021/10/12 11:58:44;;;;;;;1.80;0.80;;;11.60;99.90;;;;;;5074307;28;20281;-61
2021/10/12 12:01:17;;;;;;;0.90;0.80;;;11.70;99.90;;;;;;5074616;28;20281;-61
2021/10/12 12:03:45;;;;;;;1.67;1.07;;;11.80;99.90;;;;;;5074218;28;20185;-61
2021/10/12 12:06:13;;;;;;;1.30;1.20;;;11.90;99.90;;;;;;5074559;28;20236;-62
2021/10/12 12:08:42;;;;;;;1.70;1.13;;;11.90;99.90;;;;;;5075236;28;20201;-62
2021/10/12 12:11:11;;;;;;;2.13;1.10;;;11.90;99.90;;;;;;5074295;28;20320;-62
2021/10/12 12:13:39;;;;;;;1.20;1.10;;;12.00;99.90;;;;;;5075705;28;20199;-61
2021/10/12 12:16:07;;;;;;;1.40;1.00;;;12.00;99.90;;;;;;5094404;28;20202;-61
2021/10/12 12:18:40;;;;;;;1.40;1.23;;;12.00;99.90;;;;;;5093949;28;20302;-62
2021/10/12 12:21:08;;;;;;;2.73;1.20;;;12.00;99.90;;;;;;5093494;28;20181;-62
2021/10/12 12:23:42;;;;;;;1.13;1.00;;;12.00;99.90;;;;;;5094280;28;20192;-61
2021/10/12 12:26:12;;;;;;;1.47;1.00;;;11.90;99.90;;;;;;5094186;28;20191;-63
2021/10/12 12:28:41;;;;;;;1.95;0.85;;;12.00;99.90;;;;;;5093820;28;20211;-61
2021/10/12 12:31:20;;;;;;;1.10;0.90;;;12.20;99.90;;;;;;5093925;28;20223;-60
2021/10/12 12:33:49;;;;;;;2.03;1.00;;;12.20;99.90;;;;;;5094273;28;20321;-62
2021/10/12 12:36:18;;;;;;;2.23;1.00;;;12.10;99.90;;;;;;5093105;28;20723;-61
2021/10/12 12:38:47;;;;;;;1.30;0.90;;;12.00;99.90;;;;;;5093827;28;20207;-62
2021/10/12 12:41:22;;;;;;;1.23;0.90;;;11.80;99.90;;;;;;5093615;28;20239;-62
2021/10/12 12:43:55;;;;;;;0.97;0.90;;;12.10;99.90;;;;;;5093417;28;20237;-63
2021/10/12 12:46:24;;;;;;;1.60;0.70;;;12.30;99.90;;;;;;5093462;28;20648;-64
2021/10/12 12:49:09;;;;;;;1.43;1.00;;;12.60;99.90;;;;;;5093337;28;20192;-63
2021/10/12 12:51:45;;;;;;;1.60;0.90;;;12.80;99.90;;;;;;5093304;28;20238;-64
2021/10/12 12:54:36;;;;;;;2.05;0.70;;;12.90;99.90;;;;;;5093102;28;20192;-62
2021/10/12 12:57:09;;;;;;;1.00;0.70;;;12.70;99.90;;;;;;5093461;28;20279;-63
2021/10/12 12:59:37;;;;;;;1.30;0.90;;;13.00;99.90;;;;;;5093079;28;20711;-63
2021/10/12 13:02:05;;;;;;;0.60;0.60;;;12.80;99.90;;;;;;5093169;28;20297;-63
2021/10/12 13:04:33;;;;;;;2.00;0.80;;;12.70;99.90;;;;;;5093383;28;20283;-63